Time;durP1;ratioP1;P1;durP2;ratioP2;P2;SDS_P1;SDS_P2;PMS_P1;PMS_P2;Temp;Humidity;BMP_temperature;BMP_pressure;BME280_temperature;BME280_humidity;BME280_pressure;Samples;Min_cycle;Max_cycle;Signal;HPM_P1;HPM_P2
2023/05/06 00:00:02;;;;;;;12.10;9.27;;;;;;;13.54;100.00;92618.84;5030504;28;20076;-77
2023/05/06 00:02:37;;;;;;;11.52;9.00;;;;;;;13.53;100.00;92617.28;4998573;28;20508;-77
2023/05/06 00:05:03;;;;;;;13.77;9.15;;;;;;;13.53;100.00;92618.06;5032453;28;20029;-77
2023/05/06 00:07:29;;;;;;;12.55;9.25;;;;;;;13.50;100.00;92616.03;5014053;28;20037;-77
2023/05/06 00:09:54;;;;;;;15.05;9.70;;;;;;;13.47;100.00;92607.97;5031947;28;20054;-77
2023/05/06 00:12:20;;;;;;;14.20;9.20;;;;;;;13.47;100.00;92606.09;5031043;28;20033;-77
2023/05/06 00:14:46;;;;;;;12.50;8.93;;;;;;;13.46;100.00;92607.16;5031309;28;20171;-77
2023/05/06 00:17:11;;;;;;;14.65;8.93;;;;;;;13.47;100.00;92602.72;5030051;28;20442;-77
2023/05/06 00:19:37;;;;;;;11.23;8.68;;;;;;;13.46;100.00;92604.53;5014668;28;20041;-77
2023/05/06 00:22:03;;;;;;;12.55;9.13;;;;;;;13.44;100.00;92598.84;5012480;28;20048;-78
2023/05/06 00:24:28;;;;;;;12.68;9.15;;;;;;;13.44;100.00;92592.78;5012792;28;20474;-77
2023/05/06 00:26:54;;;;;;;12.93;9.10;;;;;;;13.42;100.00;92595.72;5027969;28;20064;-77
2023/05/06 00:29:19;;;;;;;14.02;9.73;;;;;;;13.41;100.00;92583.63;5016179;28;20089;-77
2023/05/06 00:31:46;;;;;;;13.50;8.98;;;;;;;13.33;100.00;92587.78;5021617;28;20057;-77
2023/05/06 00:34:11;;;;;;;11.90;8.98;;;;;;;13.34;100.00;92585.91;5014774;28;20514;-77
2023/05/06 00:36:37;;;;;;;13.43;9.20;;;;;;;13.34;100.00;92588.56;5014379;28;20077;-77
2023/05/06 00:39:02;;;;;;;16.08;9.60;;;;;;;13.32;100.00;92593.31;5013510;28;20029;-77
2023/05/06 00:41:34;;;;;;;14.18;9.57;;;;;;;13.29;100.00;92586.81;5013999;28;20033;-77
2023/05/06 00:44:00;;;;;;;16.13;9.82;;;;;;;13.26;100.00;92581.34;5032152;28;20065;-77
2023/05/06 00:46:26;;;;;;;12.65;8.95;;;;;;;13.22;100.00;92583.81;5030824;28;20391;-77
2023/05/06 00:48:52;;;;;;;11.75;9.15;;;;;;;13.19;100.00;92586.25;5026865;28;20475;-77
2023/05/06 00:51:18;;;;;;;12.65;8.93;;;;;;;13.21;100.00;92584.09;5014358;28;20560;-77
2023/05/06 00:53:47;;;;;;;12.20;8.85;;;;;;;13.15;100.00;92580.03;4997617;28;20038;-77
2023/05/06 00:56:12;;;;;;;14.90;8.77;;;;;;;13.11;100.00;92585.91;5031877;28;20033;-78
2023/05/06 00:58:38;;;;;;;15.80;8.18;;;;;;;13.07;100.00;92573.66;5011841;28;20064;-77
2023/05/06 01:01:04;;;;;;;12.18;9.52;;;;;;;13.06;100.00;92583.41;5013804;28;20116;-77
2023/05/06 01:03:30;;;;;;;14.35;9.00;;;;;;;13.05;100.00;92581.06;5013956;28;20496;-77
2023/05/06 01:06:10;;;;;;;15.35;9.13;;;;;;;13.01;100.00;92578.25;5013329;28;20033;-77
2023/05/06 01:09:00;;;;;;;12.80;9.73;;;;;;;13.00;100.00;92574.06;5029566;28;20492;-77
2023/05/06 01:11:40;;;;;;;13.63;9.68;;;;;;;12.97;100.00;92573.88;5010522;28;20488;-77
2023/05/06 01:14:30;;;;;;;12.07;9.20;;;;;;;12.97;100.00;92574.69;5021185;28;20075;-77
2023/05/06 01:17:02;;;;;;;11.55;9.02;;;;;;;12.94;100.00;92570.00;5030728;28;20058;-78
2023/05/06 01:19:47;;;;;;;16.30;10.00;;;;;;;12.92;100.00;92577.41;5013281;28;20495;-77
2023/05/06 01:22:15;;;;;;;14.02;9.65;;;;;;;12.87;100.00;92574.91;5013392;28;20399;-77
2023/05/06 01:24:43;;;;;;;14.25;9.63;;;;;;;12.82;100.00;92572.41;5013111;28;20045;-77
2023/05/06 01:27:10;;;;;;;12.30;9.05;;;;;;;12.79;100.00;92572.97;4997376;28;20403;-77
2023/05/06 01:29:38;;;;;;;14.93;9.60;;;;;;;12.77;100.00;92572.50;5012115;28;20120;-77
2023/05/06 01:32:26;;;;;;;12.30;9.30;;;;;;;12.78;100.00;92568.81;5013441;28;20052;-77
2023/05/06 01:34:58;;;;;;;15.57;9.63;;;;;;;12.74;100.00;92573.09;5027885;28;20519;-77
2023/05/06 01:37:51;;;;;;;13.07;9.50;;;;;;;12.76;100.00;92574.34;5019919;28;20355;-77
2023/05/06 01:40:17;;;;;;;;;;;;;;;12.77;100.00;92575.13;4996164;28;20041;-77
2023/05/06 01:42:47;;;;;;;12.73;9.70;;;;;;;12.76;100.00;92579.59;5011864;28;19917;-77
2023/05/06 01:45:14;;;;;;;12.80;9.68;;;;;;;12.74;100.00;92573.84;5024685;28;20045;-77
2023/05/06 01:47:41;;;;;;;13.95;9.73;;;;;;;12.75;100.00;92569.41;5029523;28;20505;-77
2023/05/06 01:50:07;;;;;;;15.35;10.48;;;;;;;12.74;100.00;92576.50;5027270;28;20394;-77
2023/05/06 01:52:33;;;;;;;15.00;10.30;;;;;;;12.75;100.00;92572.03;5020006;28;20471;-77
2023/05/06 01:54:58;;;;;;;14.25;10.18;;;;;;;12.77;100.00;92578.53;5007880;28;20095;-77
2023/05/06 01:57:24;;;;;;;13.90;9.98;;;;;;;12.77;100.00;92575.13;4996682;28;20044;-77
2023/05/06 01:59:50;;;;;;;16.08;10.40;;;;;;;12.77;100.00;92583.78;5012844;28;20480;-77
2023/05/06 02:02:15;;;;;;;15.98;10.77;;;;;;;12.74;100.00;92576.50;5030406;28;20041;-77
2023/05/06 02:04:41;;;;;;;13.63;10.48;;;;;;;12.73;100.00;92568.91;5023300;28;20564;-77
2023/05/06 02:07:06;;;;;;;13.63;10.00;;;;;;;12.75;100.00;92577.28;5012893;28;20071;-77
2023/05/06 02:09:32;;;;;;;13.55;10.13;;;;;;;12.73;100.00;92574.94;4979889;28;20037;-77
2023/05/06 02:12:00;;;;;;;13.10;9.55;;;;;;;12.73;100.00;92571.56;4996912;28;20535;-77
2023/05/06 02:14:26;;;;;;;13.32;9.98;;;;;;;12.73;100.00;92579.44;4992998;28;20126;-77
2023/05/06 02:16:52;;;;;;;15.85;9.65;;;;;;;12.69;100.00;92572.13;5012898;28;20181;-77
2023/05/06 02:19:19;;;;;;;12.52;9.32;;;;;;;12.70;100.00;92578.19;4993503;28;20045;-77
2023/05/06 02:21:45;;;;;;;17.65;10.20;;;;;;;12.69;100.00;92574.75;5009557;28;20042;-77
2023/05/06 02:24:10;;;;;;;12.07;9.38;;;;;;;12.67;100.00;92566.38;4993817;28;20050;-78
2023/05/06 02:26:36;;;;;;;12.88;9.52;;;;;;;12.68;100.00;92567.19;5012307;28;20041;-77
2023/05/06 02:29:02;;;;;;;13.98;9.45;;;;;;;12.68;100.00;92567.97;4996490;28;20037;-77
2023/05/06 02:31:29;;;;;;;12.85;9.73;;;;;;;12.68;100.00;92569.81;5012720;28;20087;-77
2023/05/06 02:33:54;;;;;;;14.27;9.50;;;;;;;12.66;100.00;92564.84;5010078;28;20041;-77
2023/05/06 02:36:20;;;;;;;14.50;9.65;;;;;;;12.65;100.00;92563.31;5007369;28;20033;-77
2023/05/06 02:38:46;;;;;;;13.85;9.57;;;;;;;12.57;100.00;92553.50;4995944;28;20530;-77
2023/05/06 02:41:11;;;;;;;13.75;9.68;;;;;;;12.64;100.00;92561.75;5012530;28;20053;-77
2023/05/06 02:43:37;;;;;;;13.30;9.90;;;;;;;12.64;100.00;92556.47;5002614;28;20065;-77
2023/05/06 02:46:03;;;;;;;13.75;8.98;;;;;;;12.65;100.00;92552.81;4995142;28;20484;-77
2023/05/06 02:48:29;;;;;;;15.63;9.63;;;;;;;12.62;100.00;92548.13;5014387;28;20103;-77
2023/05/06 02:50:55;;;;;;;13.23;10.25;;;;;;;12.61;100.00;92551.84;5016711;28;20030;-77
2023/05/06 02:53:21;;;;;;;13.60;9.73;;;;;;;12.57;100.00;92545.63;5026817;28;20525;-77
2023/05/06 02:55:46;;;;;;;15.75;10.05;;;;;;;12.62;100.00;92557.84;5014279;28;20048;-77
2023/05/06 02:58:12;;;;;;;12.80;9.55;;;;;;;12.59;100.00;92548.72;4995205;28;20071;-77
2023/05/06 03:00:38;;;;;;;14.55;9.50;;;;;;;12.62;100.00;92553.38;5015975;28;20029;-77
2023/05/06 03:03:03;;;;;;;15.23;9.32;;;;;;;12.61;100.00;92548.41;5015622;28;20478;-77
2023/05/06 03:05:29;;;;;;;11.00;8.65;;;;;;;12.62;100.00;92553.38;5003906;28;20053;-77
2023/05/06 03:07:55;;;;;;;12.18;8.32;;;;;;;12.60;100.00;92552.91;5020620;28;20108;-77
2023/05/06 03:10:21;;;;;;;11.55;8.70;;;;;;;12.59;100.00;92564.47;5015792;28;20116;-77
2023/05/06 03:12:47;;;;;;;8.95;7.03;;;;;;;12.57;100.00;92564.00;5014401;28;20034;-77
2023/05/06 03:15:12;;;;;;;11.70;7.40;;;;;;;12.50;100.00;92548.66;5015317;28;20029;-77
2023/05/06 03:17:38;;;;;;;13.50;7.65;;;;;;;12.54;100.00;92556.72;5015168;28;20053;-77
2023/05/06 03:20:07;;;;;;;12.35;7.18;;;;;;;12.51;100.00;92546.78;5015275;28;20041;-77
2023/05/06 03:22:34;;;;;;;9.75;7.13;;;;;;;12.52;100.00;92547.56;4998362;28;20053;-77
2023/05/06 03:24:59;;;;;;;11.27;6.88;;;;;;;12.49;100.00;92551.56;5012598;28;20042;-77
2023/05/06 03:27:27;;;;;;;8.77;6.80;;;;;;;12.46;100.00;92547.69;4996229;28;20066;-77
2023/05/06 03:29:56;;;;;;;9.98;6.60;;;;;;;12.38;100.00;92537.09;5018050;28;20064;-77
2023/05/06 03:32:23;;;;;;;9.68;6.80;;;;;;;12.36;100.00;92534.00;5031940;28;20037;-77
2023/05/06 03:34:49;;;;;;;9.80;7.30;;;;;;;12.39;100.00;92544.69;5032109;28;20415;-77
2023/05/06 03:37:18;;;;;;;11.02;7.57;;;;;;;12.35;100.00;92548.19;5015545;28;20053;-77
2023/05/06 03:39:48;;;;;;;12.88;8.10;;;;;;;12.34;100.00;92546.63;5008065;28;20129;-77
2023/05/06 03:42:15;;;;;;;10.23;7.53;;;;;;;12.27;100.00;92542.59;4994343;28;20029;-77
2023/05/06 03:44:41;;;;;;;10.25;7.85;;;;;;;12.26;100.00;92546.25;5015401;28;20045;-77
2023/05/06 03:47:07;;;;;;;11.48;7.82;;;;;;;12.26;100.00;92556.75;5015227;28;20079;-77
2023/05/06 03:49:33;;;;;;;10.40;8.20;;;;;;;12.23;100.00;92551.34;5011425;28;20025;-77
2023/05/06 03:51:59;;;;;;;9.15;7.30;;;;;;;12.20;100.00;92552.69;4995709;28;20049;-77
2023/05/06 03:54:25;;;;;;;10.23;8.05;;;;;;;12.16;100.00;92543.88;5013673;28;20042;-77
2023/05/06 03:56:51;;;;;;;10.98;8.40;;;;;;;12.16;100.00;92548.31;4997474;28;20074;-77
2023/05/06 03:59:16;;;;;;;11.00;8.68;;;;;;;12.17;100.00;92557.75;5015493;28;20037;-77
2023/05/06 04:01:42;;;;;;;12.70;8.88;;;;;;;12.12;100.00;92550.75;5014900;28;20041;-77
2023/05/06 04:04:09;;;;;;;15.00;9.38;;;;;;;12.12;100.00;92556.00;5015750;28;20368;-77
2023/05/06 04:06:34;;;;;;;15.55;8.88;;;;;;;12.10;100.00;92552.91;5014255;28;20091;-77
2023/05/06 04:09:01;;;;;;;14.73;9.68;;;;;;;12.06;100.00;92551.94;5031659;28;20037;-77
2023/05/06 04:11:27;;;;;;;14.30;10.15;;;;;;;12.02;100.00;92553.56;5012339;28;20036;-77
2023/05/06 04:13:52;;;;;;;11.77;9.27;;;;;;;12.04;100.00;92554.06;4995266;28;20030;-77
2023/05/06 04:16:20;;;;;;;13.13;9.00;;;;;;;12.05;100.00;92547.75;5007791;28;20034;-77
2023/05/06 04:18:46;;;;;;;11.27;8.40;;;;;;;12.04;100.00;92549.59;5014496;28;20064;-77
2023/05/06 04:21:14;;;;;;;13.05;8.27;;;;;;;12.07;100.00;92548.25;4997857;28;20091;-77
2023/05/06 04:23:43;;;;;;;10.52;7.65;;;;;;;12.06;100.00;92547.44;5011015;28;20050;-77
2023/05/06 04:26:12;;;;;;;9.85;7.35;;;;;;;12.07;100.00;92545.63;4980636;28;20046;-77
2023/05/06 04:28:40;;;;;;;9.43;7.47;;;;;;;12.07;100.00;92553.50;4992023;28;20089;-77
2023/05/06 04:31:07;;;;;;;10.23;7.45;;;;;;;12.09;100.00;92556.56;4996918;28;20109;-77
2023/05/06 04:33:40;;;;;;;9.52;7.10;;;;;;;12.11;100.00;92554.44;4991828;28;20408;-77
2023/05/06 04:36:10;;;;;;;10.48;7.45;;;;;;;12.16;100.00;92556.97;5007812;28;20104;-77
2023/05/06 04:38:40;;;;;;;12.27;9.00;;;;;;;12.19;100.00;92559.00;5010669;28;20042;-77
2023/05/06 04:41:06;;;;;;;14.57;8.50;;;;;;;12.22;100.00;92560.25;5026236;28;20038;-77
2023/05/06 04:43:33;;;;;;;11.13;8.27;;;;;;;12.27;100.00;92560.16;5012370;28;20053;-77
2023/05/06 04:46:07;;;;;;;10.43;8.38;;;;;;;12.32;100.00;92564.56;5027513;28;20524;-78
2023/05/06 04:48:35;;;;;;;11.52;8.52;;;;;;;12.37;100.00;92562.59;5029457;28;20045;-78
2023/05/06 04:51:04;;;;;;;13.13;8.30;;;;;;;12.44;100.00;92564.81;5010684;28;20084;-78
2023/05/06 04:53:31;;;;;;;16.15;8.13;;;;;;;12.53;100.00;92570.13;5012669;28;20026;-77
2023/05/06 04:55:58;;;;;;;13.45;8.35;;;;;;;12.59;100.00;92575.00;5027526;28;20042;-78
2023/05/06 04:58:24;;;;;;;13.43;8.32;;;;;;;12.63;100.00;92572.53;4964822;28;20052;-77
2023/05/06 05:00:49;;;;;;;12.27;8.77;;;;;;;12.68;100.00;92572.44;4991124;28;20046;-77
2023/05/06 05:03:15;;;;;;;10.60;8.10;;;;;;;12.78;100.00;92576.69;5013781;28;20045;-77
2023/05/06 05:05:41;;;;;;;10.05;8.48;;;;;;;12.88;100.00;92576.47;5010631;28;20034;-77
2023/05/06 05:08:13;;;;;;;15.90;8.43;;;;;;;12.96;100.00;92578.38;5026564;28;20516;-77
2023/05/06 05:10:42;;;;;;;10.20;7.70;;;;;;;13.05;100.00;92573.94;5010372;28;20121;-77
2023/05/06 05:13:10;;;;;;;11.35;7.40;;;;;;;13.19;100.00;92573.09;5010964;28;20030;-77
2023/05/06 05:15:37;;;;;;;8.73;6.95;;;;;;;13.31;100.00;92576.00;4994836;28;20041;-77
2023/05/06 05:18:04;;;;;;;11.00;6.72;;;;;;;13.42;100.00;92576.53;5026590;28;20467;-77
2023/05/06 05:20:30;;;;;;;10.50;7.32;;;;;;;13.56;100.00;92585.13;5008805;28;20491;-77
2023/05/06 05:22:58;;;;;;;8.90;7.07;;;;;;;13.66;100.00;92582.22;5003674;28;20089;-77
2023/05/06 05:25:23;;;;;;;11.57;7.78;;;;;;;13.80;100.00;92584.75;5010210;28;20041;-77
2023/05/06 05:27:49;;;;;;;9.85;7.53;;;;;;;13.96;100.00;92582.53;4994075;28;20084;-77
2023/05/06 05:30:15;;;;;;;9.27;7.30;;;;;;;14.10;100.00;92582.41;5012194;28;20464;-77
2023/05/06 05:32:40;;;;;;;8.50;6.30;;;;;;;14.24;100.00;92587.56;5009070;28;20053;-77
2023/05/06 05:35:09;;;;;;;8.13;5.70;;;;;;;14.33;100.00;92575.97;5010232;28;20069;-77
2023/05/06 05:37:35;;;;;;;8.18;5.85;;;;;;;14.45;100.00;92585.91;5011079;28;20030;-77
2023/05/06 05:40:02;;;;;;;7.75;5.80;;;;;;;14.53;100.00;92590.41;5009466;28;20037;-77
2023/05/06 05:42:32;;;;;;;7.05;5.60;;;;;;;14.68;100.00;92586.59;4996674;28;20559;-77
2023/05/06 05:45:01;;;;;;;7.18;5.45;;;;;;;14.81;100.00;92574.34;5008647;28;20062;-78
2023/05/06 05:47:27;;;;;;;7.43;5.47;;;;;;;15.00;100.00;92587.22;4991371;28;20040;-77
2023/05/06 05:49:53;;;;;;;8.55;5.50;;;;;;;15.19;100.00;92579.75;5010489;28;20041;-77
2023/05/06 05:52:19;;;;;;;7.50;5.57;;;;;;;15.32;100.00;92580.69;5000633;28;20031;-78
2023/05/06 05:54:45;;;;;;;6.40;5.20;;;;;;;15.36;100.00;92588.75;5004078;28;20042;-77
2023/05/06 05:57:11;;;;;;;8.18;4.88;;;;;;;15.54;100.00;92586.88;5008117;28;20045;-79
2023/05/06 05:59:36;;;;;;;7.93;4.85;;;;;;;15.64;99.55;92593.66;5007395;28;20030;-79
2023/05/06 06:02:04;;;;;;;6.55;4.68;;;;;;;15.92;93.44;92578.22;4975402;28;20038;-78
2023/05/06 06:04:33;;;;;;;6.22;3.97;;;;;;;16.55;87.57;92594.25;5011335;28;20053;-79
2023/05/06 06:07:00;;;;;;;8.63;4.28;;;;;;;16.90;83.41;92594.06;5018570;28;20086;-79
2023/05/06 06:09:27;;;;;;;7.18;3.88;;;;;;;17.44;81.98;92599.38;5021493;28;20086;-79
2023/05/06 06:11:53;;;;;;;6.15;4.13;;;;;;;18.07;80.34;92597.34;4986253;28;20028;-79
2023/05/06 06:14:22;;;;;;;5.95;4.22;;;;;;;17.86;77.79;92600.06;5022819;28;20069;-79
2023/05/06 06:16:49;;;;;;;4.93;4.00;;;;;;;17.75;79.19;92600.81;5031576;28;20048;-79
2023/05/06 06:19:31;;;;;;;6.90;3.95;;;;;;;17.71;78.38;92595.38;5029302;28;20088;-79
2023/05/06 06:21:57;;;;;;;7.90;4.30;;;;;;;17.63;79.11;92597.03;5028523;28;20038;-79
2023/05/06 06:24:29;;;;;;;7.57;4.80;;;;;;;17.64;81.79;92590.63;5028077;28;20065;-79
2023/05/06 06:26:55;;;;;;;6.22;4.28;;;;;;;17.83;79.67;92587.50;5029626;28;20034;-79
2023/05/06 06:29:20;;;;;;;5.93;4.00;;;;;;;17.91;76.94;92593.03;5035191;28;20022;-79
2023/05/06 06:31:48;;;;;;;8.93;4.43;;;;;;;17.65;79.27;92591.38;5027634;28;20057;-79
2023/05/06 06:34:14;;;;;;;7.13;4.00;;;;;;;17.19;80.95;92595.84;5038238;28;20403;-78
2023/05/06 06:36:43;;;;;;;6.63;4.30;;;;;;;16.89;84.44;92593.28;5040200;28;20073;-78
2023/05/06 06:39:11;;;;;;;6.03;4.40;;;;;;;17.06;84.47;92595.03;5029150;28;20044;-79
2023/05/06 06:41:36;;;;;;;7.95;4.50;;;;;;;17.09;85.72;92591.75;5030072;28;20089;-79
2023/05/06 06:44:19;;;;;;;7.32;4.40;;;;;;;17.20;84.46;92598.19;5028904;28;20101;-79
2023/05/06 06:46:45;;;;;;;8.25;4.43;;;;;;;17.19;86.02;92595.84;5033601;28;20049;-79
2023/05/06 06:49:16;;;;;;;9.20;4.35;;;;;;;17.43;83.57;92603.13;5027742;28;20046;-79
2023/05/06 06:51:42;;;;;;;5.18;4.05;;;;;;;17.53;84.58;92604.59;5014373;28;20533;-78
2023/05/06 06:54:08;;;;;;;6.43;4.43;;;;;;;17.52;84.82;92614.41;5011325;28;20053;-80
2023/05/06 06:56:33;;;;;;;7.47;4.50;;;;;;;17.40;83.27;92609.81;5008860;28;20069;-80
2023/05/06 06:58:59;;;;;;;9.63;4.88;;;;;;;17.11;87.60;92615.97;4994479;28;20022;-78
2023/05/06 07:01:24;;;;;;;6.00;4.68;;;;;;;16.97;86.81;92615.47;5010928;28;20099;-79
2023/05/06 07:03:50;;;;;;;7.20;4.93;;;;;;;16.81;89.31;92620.56;5029103;28;20038;-79
2023/05/06 07:06:16;;;;;;;6.32;4.90;;;;;;;17.02;92.25;92620.56;5010443;28;20040;-78
2023/05/06 07:08:41;;;;;;;6.75;5.10;;;;;;;17.27;88.93;92624.88;5009735;28;20064;-78
2023/05/06 07:11:07;;;;;;;7.70;5.35;;;;;;;17.43;87.17;92616.38;5017328;28;20125;-79
2023/05/06 07:13:32;;;;;;;6.25;4.60;;;;;;;17.60;82.03;92621.47;5014249;28;20052;-79
2023/05/06 07:15:58;;;;;;;5.25;3.63;;;;;;;17.53;73.29;92615.19;5015044;28;20041;-79
2023/05/06 07:18:24;;;;;;;5.03;3.45;;;;;;;17.58;71.72;92628.19;5014637;28;20041;-77
2023/05/06 07:20:49;;;;;;;5.97;3.67;;;;;;;17.88;70.23;92631.53;5015158;28;20058;-78
2023/05/06 07:23:15;;;;;;;6.15;3.97;;;;;;;18.12;71.38;92632.66;5007522;28;20057;-77
2023/05/06 07:25:41;;;;;;;5.72;4.22;;;;;;;18.15;74.27;92627.50;5034455;28;20045;-77
2023/05/06 07:28:07;;;;;;;8.55;4.50;;;;;;;18.35;75.67;92636.47;5030814;28;20103;-78
2023/05/06 07:30:32;;;;;;;6.35;3.90;;;;;;;18.44;70.68;92631.84;5009095;28;20357;-77
2023/05/06 07:32:58;;;;;;;5.80;4.32;;;;;;;18.50;71.77;92625.19;5029723;28;20045;-77
2023/05/06 07:35:24;;;;;;;7.75;4.70;;;;;;;18.33;74.08;92627.28;5031431;28;20041;-76
2023/05/06 07:37:50;;;;;;;6.93;4.68;;;;;;;18.36;77.37;92631.94;5029680;28;20072;-77
2023/05/06 07:40:15;;;;;;;7.85;4.68;;;;;;;18.06;76.70;92630.25;5026061;28;20112;-77
2023/05/06 07:42:41;;;;;;;8.27;5.10;;;;;;;18.06;76.77;92626.81;5030180;28;20588;-77
2023/05/06 07:45:07;;;;;;;6.57;4.55;;;;;;;18.13;76.44;92632.34;5030942;28;20098;-77
2023/05/06 07:47:34;;;;;;;7.03;4.60;;;;;;;18.13;74.97;92634.22;5031442;28;20044;-77
2023/05/06 07:50:00;;;;;;;6.75;4.53;;;;;;;18.03;74.91;92632.75;5031075;28;20056;-77
2023/05/06 07:52:27;;;;;;;7.05;5.45;;;;;;;18.07;79.24;92623.06;5028493;28;20033;-77
2023/05/06 07:54:53;;;;;;;8.25;6.07;;;;;;;18.08;76.69;92630.69;5031472;28;20041;-77
2023/05/06 07:57:18;;;;;;;7.50;6.03;;;;;;;18.07;79.97;92634.44;5030165;28;20442;-77
2023/05/06 07:59:48;;;;;;;7.63;5.95;;;;;;;18.30;83.18;92628.72;5031523;28;20037;-77
2023/05/06 08:02:14;;;;;;;7.82;5.97;;;;;;;18.17;81.24;92630.59;5025514;28;20044;-77
2023/05/06 08:04:40;;;;;;;7.53;6.10;;;;;;;18.07;81.03;92631.78;5030960;28;20030;-77
2023/05/06 08:07:06;;;;;;;8.02;5.93;;;;;;;18.30;80.77;92626.06;5011763;28;20041;-77
2023/05/06 08:09:32;;;;;;;10.68;7.35;;;;;;;18.01;79.54;92627.03;5028333;28;20132;-77
2023/05/06 08:11:57;;;;;;;11.60;6.28;;;;;;;18.35;79.75;92631.16;5012728;28;20040;-76
2023/05/06 08:14:24;;;;;;;8.48;6.78;;;;;;;18.55;76.61;92636.69;5031184;28;20087;-76
2023/05/06 08:16:50;;;;;;;8.10;5.90;;;;;;;18.44;77.46;92637.13;5032921;28;20399;-77
2023/05/06 08:19:16;;;;;;;10.07;7.10;;;;;;;18.38;78.02;92643.75;5025594;28;20022;-75
2023/05/06 08:21:42;;;;;;;12.77;5.35;;;;;;;18.46;76.26;92634.13;5030240;28;20049;-75
2023/05/06 08:24:09;;;;;;;9.18;6.40;;;;;;;18.43;78.32;92640.88;5031554;28;20864;-77
2023/05/06 08:26:35;;;;;;;8.93;5.85;;;;;;;18.81;80.11;92639.78;5028732;28;20091;-77
2023/05/06 08:29:02;;;;;;;13.43;6.53;;;;;;;18.74;76.01;92642.19;5030186;28;20038;-76
2023/05/06 08:31:27;;;;;;;8.10;5.60;;;;;;;18.78;75.91;92643.13;5029378;28;20030;-76
2023/05/06 08:33:53;;;;;;;11.13;6.32;;;;;;;19.05;76.48;92638.19;5042711;28;20041;-77
2023/05/06 08:36:19;;;;;;;8.50;5.60;;;;;;;19.23;73.88;92636.84;5028125;28;20029;-77
2023/05/06 08:38:49;;;;;;;8.52;6.80;;;;;;;19.14;72.89;92646.81;5028417;28;20132;-77
2023/05/06 08:41:18;;;;;;;10.65;7.00;;;;;;;19.07;73.57;92647.41;5030771;28;20060;-77
2023/05/06 08:43:46;;;;;;;8.82;5.85;;;;;;;19.23;75.67;92644.03;5024411;28;20554;-77
2023/05/06 08:46:13;;;;;;;8.38;6.07;;;;;;;19.08;76.93;92643.63;5030567;28;20168;-76
2023/05/06 08:48:38;;;;;;;11.05;6.30;;;;;;;18.94;74.97;92648.53;5013218;28;20087;-76
2023/05/06 08:51:04;;;;;;;9.07;6.40;;;;;;;18.79;80.16;92647.31;5028127;28;20053;-76
2023/05/06 08:53:32;;;;;;;10.82;7.53;;;;;;;18.95;75.24;92646.63;5027186;28;20061;-77
2023/05/06 08:56:05;;;;;;;7.15;5.25;;;;;;;19.02;75.25;92646.84;5030176;28;20067;-76
2023/05/06 08:58:37;;;;;;;10.73;7.05;;;;;;;19.32;75.02;92639.38;5024925;28;20095;-77
2023/05/06 09:01:03;;;;;;;;;;;;;;;19.11;72.80;92636.88;5028979;28;20041;-77
2023/05/06 09:03:29;;;;;;;11.45;7.50;;;;;;;19.10;73.18;92635.34;5034562;28;19948;-77
2023/05/06 09:05:58;;;;;;;10.70;7.25;;;;;;;19.24;74.18;92627.00;5043175;28;20053;-76
2023/05/06 09:08:23;;;;;;;10.30;8.10;;;;;;;19.28;73.16;92625.22;5028737;28;20052;-76
2023/05/06 09:10:49;;;;;;;9.48;7.53;;;;;;;19.51;72.05;92628.91;5024624;28;20029;-76
2023/05/06 09:13:16;;;;;;;11.20;7.78;;;;;;;19.35;75.04;92625.44;5028710;28;20045;-77
2023/05/06 09:15:46;;;;;;;9.63;6.38;;;;;;;19.70;73.06;92620.34;5028309;28;20045;-77
2023/05/06 09:18:13;;;;;;;11.07;7.60;;;;;;;19.41;73.38;92617.97;5030400;28;20067;-77
2023/05/06 09:20:44;;;;;;;10.50;7.85;;;;;;;19.40;75.35;92619.88;5031119;28;20092;-76
2023/05/06 09:23:10;;;;;;;10.13;7.50;;;;;;;19.53;75.48;92628.56;5027234;28;20519;-77
2023/05/06 09:25:37;;;;;;;9.35;6.78;;;;;;;19.48;73.18;92626.94;5027967;28;20117;-76
2023/05/06 09:28:08;;;;;;;10.23;7.72;;;;;;;19.57;72.90;92626.78;5042275;28;20029;-77
2023/05/06 09:30:39;;;;;;;12.95;8.48;;;;;;;19.67;76.01;92625.53;5026895;28;20068;-77
2023/05/06 09:33:05;;;;;;;9.82;8.15;;;;;;;19.58;73.46;92622.25;5024372;28;20451;-77
2023/05/06 09:35:39;;;;;;;10.27;8.07;;;;;;;19.51;72.33;92630.78;5022316;28;20025;-76
2023/05/06 09:38:06;;;;;;;11.40;7.97;;;;;;;19.51;72.71;92623.59;5024105;28;20529;-77
2023/05/06 09:40:33;;;;;;;7.53;5.50;;;;;;;19.75;71.53;92621.97;5026151;28;20040;-76
2023/05/06 09:42:59;;;;;;;10.32;6.88;;;;;;;19.86;72.04;92617.72;5025788;28;20044;-76
2023/05/06 09:45:26;;;;;;;12.98;7.60;;;;;;;20.08;69.68;92621.66;5023229;28;20045;-77
2023/05/06 09:47:52;;;;;;;11.05;7.30;;;;;;;20.27;67.70;92612.28;5025377;28;20611;-77
2023/05/06 09:50:20;;;;;;;9.38;5.85;;;;;;;20.46;69.33;92607.00;5020149;28;20024;-76
2023/05/06 09:52:47;;;;;;;8.57;6.20;;;;;;;20.48;68.97;92610.09;5030221;28;20384;-76
2023/05/06 09:55:13;;;;;;;8.57;6.40;;;;;;;20.63;68.29;92610.47;5028730;28;20468;-75
2023/05/06 09:57:40;;;;;;;8.63;6.57;;;;;;;20.55;66.30;92604.94;5005756;28;20056;-76
2023/05/06 10:00:08;;;;;;;7.80;6.22;;;;;;;20.71;65.08;92606.84;5043848;28;20040;-77
2023/05/06 10:02:40;;;;;;;;;;;;;;;20.75;63.70;92607.69;5028271;28;20033;-77
2023/05/06 10:05:08;;;;;;;8.80;6.15;;;;;;;20.61;67.11;92596.75;5030346;28;20433;-76
2023/05/06 10:07:34;;;;;;;10.70;5.85;;;;;;;20.91;68.31;92597.78;5029614;28;20048;-76
2023/05/06 10:10:01;;;;;;;8.75;6.63;;;;;;;20.84;65.33;92594.22;5030901;28;20565;-77
2023/05/06 10:12:28;;;;;;;7.20;5.75;;;;;;;20.82;65.82;92591.13;5029269;28;20464;-77
2023/05/06 10:14:54;;;;;;;7.07;5.10;;;;;;;20.73;63.65;92593.97;5030338;28;20034;-77
2023/05/06 10:17:23;;;;;;;9.25;5.00;;;;;;;20.48;64.41;92593.38;5029188;28;20043;-77
2023/05/06 10:19:51;;;;;;;9.80;5.88;;;;;;;20.27;66.60;92589.13;5028559;28;20033;-76
2023/05/06 10:22:35;;;;;;;8.80;5.50;;;;;;;20.31;64.60;92583.88;5029089;28;20042;-77
2023/05/06 10:25:15;;;;;;;10.00;6.50;;;;;;;20.08;66.73;92581.81;5028632;28;20407;-77
2023/05/06 10:27:43;;;;;;;7.55;5.90;;;;;;;20.35;66.24;92579.41;5028330;28;20053;-77
2023/05/06 10:30:10;;;;;;;9.70;6.30;;;;;;;20.27;67.70;92577.72;5028494;28;20041;-77
2023/05/06 10:32:41;;;;;;;10.45;6.32;;;;;;;20.13;66.22;92568.28;5027703;28;20108;-77
2023/05/06 10:35:39;;;;;;;13.63;6.88;;;;;;;20.05;67.14;92566.56;5033482;28;20043;-77
2023/05/06 10:38:10;;;;;;;9.00;5.93;;;;;;;19.95;66.94;92567.09;5019183;28;20565;-77
2023/05/06 10:40:36;;;;;;;9.80;7.25;;;;;;;19.42;68.46;92567.22;5033077;28;20063;-77
2023/05/06 10:43:21;;;;;;;18.65;6.90;;;;;;;19.59;68.51;92563.50;5031287;28;20025;-76
2023/05/06 10:46:08;;;;;;;7.45;5.47;;;;;;;20.05;66.37;92555.19;5045803;28;20526;-77
2023/05/06 10:48:37;;;;;;;9.60;5.57;;;;;;;20.15;65.30;92544.81;5028883;28;20407;-76
2023/05/06 10:51:27;;;;;;;8.30;6.28;;;;;;;20.41;63.88;92556.00;5009432;28;20038;-75
2023/05/06 10:54:07;;;;;;;9.00;5.85;;;;;;;20.61;62.96;92551.56;5027427;28;20029;-75
2023/05/06 10:56:34;;;;;;;7.68;5.50;;;;;;;20.54;64.17;92544.91;5026297;28;20045;-76
2023/05/06 10:59:08;;;;;;;6.63;5.10;;;;;;;20.64;64.47;92556.94;5040391;28;20079;-76
2023/05/06 11:01:36;;;;;;;9.40;6.25;;;;;;;20.78;63.60;92548.47;5029189;28;20037;-77
2023/05/06 11:04:05;;;;;;;8.52;5.78;;;;;;;20.83;62.64;92556.22;5022871;28;20057;-77
2023/05/06 11:06:37;;;;;;;8.82;6.40;;;;;;;21.02;63.31;92552.03;5015833;28;20037;-75
2023/05/06 11:09:05;;;;;;;11.38;6.97;;;;;;;21.03;63.18;92551.69;5022497;28;20033;-76
2023/05/06 11:12:05;;;;;;;6.10;5.00;;;;;;;21.29;63.28;92545.72;5018891;28;20187;-76
2023/05/06 11:14:36;;;;;;;7.20;5.22;;;;;;;21.05;62.38;92543.34;5019299;28;20207;-75
2023/05/06 11:17:05;;;;;;;8.60;6.20;;;;;;;20.99;60.13;92558.81;5018495;28;20159;-75
2023/05/06 11:19:36;;;;;;;7.28;5.40;;;;;;;20.84;63.72;92549.00;5039026;28;22105;-75
2023/05/06 11:22:04;;;;;;;8.65;6.00;;;;;;;21.08;61.17;92545.31;5023529;28;20034;-76
2023/05/06 11:24:41;;;;;;;11.80;6.53;;;;;;;21.02;62.98;92538.72;5018224;28;20033;-76
2023/05/06 11:27:09;;;;;;;8.13;5.90;;;;;;;21.12;62.79;92546.13;5020929;28;20124;-75